createdAt,value
2019-01-10T00:00:30.751Z,29.36
2019-01-10T00:02:57.098Z,29.42
2019-01-10T00:05:23.450Z,29.44
2019-01-10T00:07:49.789Z,29.56
2019-01-10T00:10:16.175Z,29.51
2019-01-10T00:12:42.505Z,29.41
2019-01-10T00:15:08.886Z,29.44
2019-01-10T00:17:35.237Z,29.41
2019-01-10T00:20:01.632Z,29.46
2019-01-10T00:22:27.964Z,29.57
2019-01-10T00:24:54.374Z,29.62
2019-01-10T00:27:20.827Z,29.61
2019-01-10T00:29:47.159Z,29.62
2019-01-10T00:32:13.504Z,29.62
2019-01-10T00:34:39.836Z,29.59
2019-01-10T00:37:06.173Z,29.69
2019-01-10T00:39:32.512Z,29.83
2019-01-10T00:41:58.921Z,29.64
2019-01-10T00:44:25.264Z,29.67
2019-01-10T00:46:51.595Z,29.74
2019-01-10T00:49:17.986Z,29.73
2019-01-10T00:51:44.319Z,29.96
2019-01-10T00:54:10.716Z,29.67
2019-01-10T00:56:39.529Z,29.76
2019-01-10T00:59:05.991Z,29.81
2019-01-10T01:01:32.335Z,29.94
2019-01-10T01:03:58.701Z,29.81
2019-01-10T01:06:25.008Z,29.54
2019-01-10T01:08:51.335Z,29.02
2019-01-10T01:11:17.704Z,28.77
2019-01-10T01:13:43.998Z,28.29
2019-01-10T01:16:10.328Z,28.19
2019-01-10T01:18:36.715Z,28.16
2019-01-10T01:21:03.098Z,27.96
2019-01-10T01:23:29.501Z,27.92
2019-01-10T01:25:55.832Z,27.76
2019-01-10T01:28:22.184Z,27.78
2019-01-10T01:30:48.567Z,27.79
2019-01-10T01:33:14.854Z,27.77
2019-01-10T01:35:41.180Z,27.66
2019-01-10T01:38:07.501Z,27.58
2019-01-10T01:40:33.834Z,27.62
2019-01-10T01:43:07.248Z,27.51
2019-01-10T01:45:26.554Z,27.43
2019-01-10T01:47:52.998Z,27.60
2019-01-10T01:50:19.359Z,27.63
2019-01-10T01:52:45.699Z,27.59
2019-01-10T01:55:12.025Z,27.66
2019-01-10T01:57:38.370Z,27.61
2019-01-10T02:00:04.731Z,27.59
2019-01-10T02:02:31.068Z,27.58
2019-01-10T02:04:57.525Z,27.70
2019-01-10T02:07:23.942Z,27.71
2019-01-10T02:09:50.255Z,27.71
2019-01-10T02:12:16.700Z,27.62
2019-01-10T02:14:42.882Z,27.65
2019-01-10T02:17:09.250Z,27.58
2019-01-10T02:19:35.566Z,27.30
2019-01-10T02:22:01.904Z,27.50
2019-01-10T02:24:28.238Z,27.33
2019-01-10T02:26:54.575Z,27.35
2019-01-10T02:29:20.965Z,27.33
2019-01-10T02:31:47.365Z,27.22
2019-01-10T02:34:13.711Z,27.36
2019-01-10T02:36:40.056Z,27.39
2019-01-10T02:39:06.401Z,27.42
2019-01-10T02:41:32.785Z,27.50
2019-01-10T02:43:59.116Z,27.49
2019-01-10T02:46:25.441Z,27.43
2019-01-10T02:48:51.772Z,27.33
2019-01-10T02:51:18.121Z,27.31
2019-01-10T02:53:55.851Z,27.38
2019-01-10T02:56:22.212Z,27.27
2019-01-10T02:58:48.566Z,27.34
2019-01-10T03:01:14.906Z,27.26
2019-01-10T03:03:41.305Z,27.18
2019-01-10T03:06:07.767Z,27.10
2019-01-10T03:08:34.139Z,27.15
2019-01-10T03:11:00.502Z,27.13
2019-01-10T03:13:36.288Z,27.16
2019-01-10T03:15:53.155Z,27.11
2019-01-10T03:18:19.539Z,27.13
2019-01-10T03:20:45.868Z,27.10
2019-01-10T03:23:12.287Z,27.07
2019-01-10T03:25:38.607Z,26.94
2019-01-10T03:28:04.960Z,27.12
2019-01-10T03:30:31.294Z,26.99
2019-01-10T03:32:57.686Z,26.99
2019-01-10T03:35:24.010Z,27.00
2019-01-10T03:37:50.296Z,26.93
2019-01-10T03:40:17.009Z,27.00
2019-01-10T03:42:43.258Z,26.92
2019-01-10T03:45:09.594Z,26.90
2019-01-10T03:47:35.933Z,26.89
2019-01-10T03:50:02.273Z,26.87
2019-01-10T03:52:28.598Z,26.85
2019-01-10T03:54:54.930Z,26.84
2019-01-10T03:57:21.266Z,26.74
2019-01-10T03:59:47.595Z,26.66
2019-01-10T04:02:13.929Z,26.61
2019-01-10T04:04:40.354Z,26.53
2019-01-10T04:07:06.695Z,26.66
2019-01-10T04:09:33.043Z,26.42
2019-01-10T04:11:59.403Z,26.40
2019-01-10T04:14:25.834Z,26.65
2019-01-10T04:16:52.243Z,26.82
2019-01-10T04:19:18.513Z,26.98
2019-01-10T04:21:44.852Z,27.06
2019-01-10T04:24:11.170Z,27.05
2019-01-10T04:26:37.534Z,27.05
2019-01-10T04:29:03.883Z,27.11
2019-01-10T04:31:30.210Z,27.16
2019-01-10T04:33:56.545Z,27.14
2019-01-10T04:36:22.877Z,27.07
2019-01-10T04:38:49.210Z,26.99
2019-01-10T04:41:15.541Z,27.02
2019-01-10T04:43:41.887Z,27.01
2019-01-10T04:46:08.214Z,27.07
2019-01-10T04:48:34.613Z,27.00
2019-01-10T04:51:00.952Z,26.87
2019-01-10T04:53:27.257Z,26.85
2019-01-10T04:55:53.589Z,26.89
2019-01-10T04:58:19.930Z,27.41
2019-01-10T05:00:46.283Z,26.99
2019-01-10T05:03:12.601Z,26.90
2019-01-10T05:05:38.993Z,27.18
2019-01-10T05:08:05.399Z,27.09
2019-01-10T05:10:31.736Z,26.92
2019-01-10T05:12:58.089Z,26.93
2019-01-10T05:15:24.419Z,26.84
2019-01-10T05:17:50.781Z,26.81
2019-01-10T05:20:17.098Z,26.83
2019-01-10T05:22:43.436Z,26.82
2019-01-10T05:25:09.811Z,26.72
2019-01-10T05:27:36.138Z,26.65
2019-01-10T05:30:02.488Z,26.74
2019-01-10T05:32:28.904Z,26.74
2019-01-10T05:34:55.293Z,26.72
2019-01-10T05:37:21.668Z,26.84
2019-01-10T05:39:48.044Z,26.73
2019-01-10T05:42:14.301Z,26.80
2019-01-10T05:44:40.635Z,26.78
2019-01-10T05:47:06.971Z,26.78
2019-01-10T05:49:33.428Z,26.89
2019-01-10T05:51:59.713Z,26.83
2019-01-10T05:54:26.049Z,26.78
2019-01-10T05:56:52.382Z,26.57
2019-01-10T05:59:18.729Z,26.47
2019-01-10T06:01:45.057Z,26.84
2019-01-10T06:04:11.389Z,26.61
2019-01-10T06:06:37.781Z,26.58
2019-01-10T06:09:04.129Z,26.68
2019-01-10T06:11:30.468Z,26.86
2019-01-10T06:13:56.784Z,27.30
2019-01-10T06:16:23.135Z,27.13
2019-01-10T06:18:49.481Z,27.13
2019-01-10T06:21:15.830Z,27.26
2019-01-10T06:23:42.219Z,27.38
2019-01-10T06:26:08.509Z,27.32
2019-01-10T06:28:34.923Z,27.30
2019-01-10T06:31:01.339Z,27.36
2019-01-10T06:33:27.803Z,27.33
2019-01-10T06:35:54.164Z,27.76
2019-01-10T06:38:20.471Z,27.25
2019-01-10T06:40:46.795Z,27.39
2019-01-10T06:43:13.124Z,27.53
2019-01-10T06:45:39.455Z,27.92
2019-01-10T06:48:05.797Z,27.49
2019-01-10T06:50:32.134Z,27.51
2019-01-10T06:52:58.517Z,27.49
2019-01-10T06:55:24.858Z,27.49
2019-01-10T06:57:51.265Z,27.45
2019-01-10T07:00:17.603Z,27.62
2019-01-10T07:02:43.982Z,27.35
2019-01-10T07:05:11.198Z,27.41
2019-01-10T07:07:36.671Z,27.16
2019-01-10T07:10:03.012Z,26.97
2019-01-10T07:12:29.436Z,27.18
2019-01-10T07:14:55.720Z,27.76
2019-01-10T07:17:22.053Z,27.11
2019-01-10T07:19:48.470Z,26.97
2019-01-10T07:22:14.818Z,27.37
2019-01-10T07:24:41.200Z,27.66
2019-01-10T07:27:10.061Z,27.28
2019-01-10T07:29:36.399Z,27.81
2019-01-10T07:32:02.729Z,27.85
2019-01-10T07:34:29.087Z,27.89
2019-01-10T07:36:55.462Z,27.67
2019-01-10T07:39:21.893Z,27.44
2019-01-10T07:41:48.223Z,27.46
2019-01-10T07:44:14.625Z,27.64
2019-01-10T07:46:41.048Z,27.30
2019-01-10T07:49:07.422Z,27.53
2019-01-10T07:51:33.781Z,27.66
2019-01-10T07:54:00.142Z,27.66
2019-01-10T07:56:26.501Z,27.90
2019-01-10T07:58:52.931Z,27.62
2019-01-10T08:01:19.912Z,27.84
2019-01-10T08:03:46.348Z,28.20
2019-01-10T08:06:12.627Z,28.07
2019-01-10T08:08:39.265Z,28.04
2019-01-10T08:11:05.687Z,27.49
2019-01-10T08:13:32.025Z,27.91
2019-01-10T08:15:58.362Z,27.77
2019-01-10T08:18:24.807Z,27.94
2019-01-10T08:20:51.210Z,28.26
2019-01-10T08:23:17.518Z,27.78
2019-01-10T08:25:43.871Z,27.72
2019-01-10T08:28:10.206Z,28.05
2019-01-10T08:30:36.560Z,28.52
2019-01-10T08:33:02.950Z,28.17
2019-01-10T08:35:29.404Z,27.89
2019-01-10T08:37:55.741Z,27.68
2019-01-10T08:40:22.087Z,28.01
2019-01-10T08:42:48.435Z,27.89
2019-01-10T08:45:21.405Z,27.76
2019-01-10T08:47:41.157Z,27.59
2019-01-10T08:50:07.537Z,28.14
2019-01-10T08:52:33.906Z,27.98
2019-01-10T08:55:00.273Z,28.17
2019-01-10T08:57:26.739Z,28.07
2019-01-10T08:59:53.117Z,27.99
2019-01-10T09:02:19.578Z,28.23
2019-01-10T09:04:46.145Z,28.32
2019-01-10T09:07:12.464Z,28.17
2019-01-10T09:09:38.879Z,27.96
2019-01-10T09:12:07.124Z,27.69
2019-01-10T09:14:33.511Z,27.71
2019-01-10T09:16:59.939Z,27.81
2019-01-10T09:19:26.268Z,28.15
2019-01-10T09:21:52.628Z,28.25
2019-01-10T09:24:18.967Z,28.09
2019-01-10T09:26:45.370Z,28.03
2019-01-10T09:29:11.707Z,27.97
2019-01-10T09:31:38.460Z,27.76
2019-01-10T09:34:04.811Z,28.39
2019-01-10T09:36:31.187Z,27.61
2019-01-10T09:38:57.614Z,27.73
2019-01-10T09:41:23.938Z,27.64
2019-01-10T09:43:50.345Z,27.81
2019-01-10T09:46:16.746Z,27.93
2019-01-10T09:48:43.126Z,27.60
2019-01-10T09:51:09.558Z,27.43
2019-01-10T09:53:35.944Z,27.49
2019-01-10T09:56:03.227Z,27.57
2019-01-10T09:58:29.573Z,27.58
2019-01-10T10:00:55.904Z,27.28
2019-01-10T10:03:22.280Z,27.29
2019-01-10T10:05:48.611Z,27.12
2019-01-10T10:08:15.012Z,27.21
2019-01-10T10:10:41.342Z,27.02
2019-01-10T10:13:07.737Z,26.82
2019-01-10T10:15:34.073Z,26.75
2019-01-10T10:18:00.426Z,26.86
2019-01-10T10:20:26.809Z,26.97
2019-01-10T10:22:53.202Z,27.27
2019-01-10T10:25:19.593Z,27.11
2019-01-10T10:27:45.920Z,26.77
2019-01-10T10:30:12.271Z,26.80
2019-01-10T10:32:38.674Z,26.71
2019-01-10T10:35:05.034Z,26.87
2019-01-10T10:37:31.360Z,27.27
2019-01-10T10:39:57.693Z,27.54
2019-01-10T10:42:24.041Z,27.54
2019-01-10T10:44:50.416Z,27.49
2019-01-10T10:47:16.816Z,27.28
2019-01-10T10:49:45.669Z,27.46
2019-01-10T10:52:12.576Z,28.07
2019-01-10T10:54:38.436Z,27.76
2019-01-10T10:57:04.769Z,27.75
2019-01-10T10:59:31.166Z,27.75
2019-01-10T11:01:57.525Z,27.71
2019-01-10T11:04:23.877Z,27.47
2019-01-10T11:06:50.219Z,27.77
2019-01-10T11:09:16.549Z,27.40
2019-01-10T11:11:42.926Z,27.38
2019-01-10T11:14:09.312Z,27.02
2019-01-10T11:16:35.752Z,26.90
2019-01-10T11:19:02.643Z,26.84
2019-01-10T11:21:28.987Z,27.20
2019-01-10T11:23:55.361Z,27.04
2019-01-10T11:26:21.712Z,27.02
2019-01-10T11:28:48.177Z,26.92
2019-01-10T11:31:14.532Z,26.86
2019-01-10T11:33:41.446Z,26.91
2019-01-10T11:36:07.981Z,26.95
2019-01-10T11:38:35.581Z,26.91
2019-01-10T11:41:02.012Z,26.67
2019-01-10T11:43:28.339Z,26.62
2019-01-10T11:45:54.749Z,26.64
2019-01-10T11:48:23.154Z,26.64
2019-01-10T11:50:49.571Z,26.61
2019-01-10T11:53:17.003Z,26.66
2019-01-10T11:55:44.495Z,26.90
2019-01-10T11:58:10.874Z,27.17
2019-01-10T12:00:37.256Z,26.73
2019-01-10T12:03:03.690Z,26.78
2019-01-10T12:05:31.046Z,27.10
2019-01-10T12:07:57.431Z,26.98
2019-01-10T12:10:23.831Z,26.88
2019-01-10T12:12:50.229Z,26.79
2019-01-10T12:15:16.619Z,27.17
2019-01-10T12:17:43.006Z,27.39
2019-01-10T12:20:09.481Z,28.22
2019-01-10T12:22:35.722Z,28.53
2019-01-10T12:25:02.081Z,28.38
2019-01-10T12:27:28.415Z,28.99
2019-01-10T12:29:54.840Z,29.04
2019-01-10T12:32:23.420Z,29.23
2019-01-10T12:34:49.841Z,29.05
2019-01-10T12:37:16.131Z,29.10
2019-01-10T12:39:42.531Z,29.78
2019-01-10T12:42:08.978Z,29.85
2019-01-10T12:44:37.534Z,30.11
2019-01-10T12:47:03.991Z,30.46
2019-01-10T12:49:30.349Z,30.78
2019-01-10T12:51:56.671Z,30.63
2019-01-10T12:54:23.062Z,30.79
2019-01-10T12:56:49.500Z,31.02
2019-01-10T12:59:15.837Z,31.07
2019-01-10T13:01:42.260Z,31.35
2019-01-10T13:04:11.049Z,31.17
2019-01-10T13:06:37.423Z,31.34
2019-01-10T13:09:04.741Z,31.17
2019-01-10T13:11:31.201Z,31.25
2019-01-10T13:13:59.683Z,31.13
2019-01-10T13:16:23.870Z,30.89
2019-01-10T13:18:50.289Z,30.80
2019-01-10T13:21:16.639Z,30.74
2019-01-10T13:23:42.982Z,30.62
2019-01-10T13:26:09.423Z,30.33
2019-01-10T13:28:35.927Z,30.26
2019-01-10T13:31:02.349Z,30.55
2019-01-10T13:33:28.716Z,30.51
2019-01-10T13:35:55.097Z,30.38
2019-01-10T13:38:23.944Z,30.25
2019-01-10T13:40:50.448Z,30.16
2019-01-10T13:43:16.791Z,30.31
2019-01-10T13:45:46.349Z,30.46
2019-01-10T13:48:09.603Z,30.27
2019-01-10T13:50:36.006Z,29.96
2019-01-10T13:53:02.401Z,29.87
2019-01-10T13:55:28.805Z,29.87
2019-01-10T13:57:55.163Z,29.94
2019-01-10T14:00:21.535Z,29.91
2019-01-10T14:02:48.048Z,29.77
2019-01-10T14:05:14.401Z,29.86
2019-01-10T14:07:40.768Z,29.80
2019-01-10T14:10:07.216Z,29.79
2019-01-10T14:12:33.631Z,30.07
2019-01-10T14:15:00.154Z,30.12
2019-01-10T14:17:26.491Z,30.78
2019-01-10T14:19:52.969Z,30.54
2019-01-10T14:22:19.486Z,30.44
2019-01-10T14:24:45.847Z,29.88
2019-01-10T14:27:12.185Z,29.91
2019-01-10T14:29:38.527Z,29.49
2019-01-10T14:32:04.919Z,29.54
2019-01-10T14:34:31.327Z,29.42
2019-01-10T14:36:57.753Z,29.41
2019-01-10T14:39:24.210Z,29.35
2019-01-10T14:41:50.617Z,29.20
2019-01-10T14:44:17.137Z,29.37
2019-01-10T14:46:43.610Z,29.25
2019-01-10T14:49:12.278Z,29.09
2019-01-10T14:51:38.662Z,29.03
2019-01-10T14:54:05.010Z,29.03
2019-01-10T14:56:31.365Z,28.78
2019-01-10T14:58:57.725Z,28.81
2019-01-10T15:01:24.110Z,28.65
2019-01-10T15:03:50.454Z,28.82
2019-01-10T15:06:16.774Z,28.90
2019-01-10T15:08:43.115Z,28.72
2019-01-10T15:11:09.470Z,28.72
2019-01-10T15:13:35.827Z,28.86
2019-01-10T15:16:02.266Z,28.70
2019-01-10T15:18:28.598Z,28.92
2019-01-10T15:20:55.019Z,28.74
2019-01-10T15:23:21.533Z,28.65
2019-01-10T15:25:47.903Z,28.74
2019-01-10T15:28:14.252Z,28.65
2019-01-10T15:30:40.745Z,28.82
2019-01-10T15:33:07.132Z,28.74
2019-01-10T15:35:33.507Z,28.67
2019-01-10T15:38:00.901Z,28.80
2019-01-10T15:40:27.238Z,28.87
2019-01-10T15:42:53.721Z,28.93
2019-01-10T15:45:20.127Z,28.85
2019-01-10T15:47:48.917Z,28.93
2019-01-10T15:50:15.254Z,28.82
2019-01-10T15:52:41.630Z,28.79
2019-01-10T15:55:07.961Z,28.97
2019-01-10T15:57:34.338Z,28.92
2019-01-10T16:00:00.687Z,28.92
2019-01-10T16:02:27.023Z,28.79
2019-01-10T16:04:53.367Z,28.70
2019-01-10T16:07:19.705Z,28.76
2019-01-10T16:09:46.104Z,28.64
2019-01-10T16:12:12.422Z,28.74
2019-01-10T16:14:38.881Z,28.95
2019-01-10T16:17:05.229Z,28.66
2019-01-10T16:19:31.652Z,28.95
2019-01-10T16:21:58.019Z,28.95
2019-01-10T16:24:24.402Z,28.65
2019-01-10T16:26:50.739Z,28.63
2019-01-10T16:29:17.127Z,28.59
2019-01-10T16:31:43.535Z,28.53
2019-01-10T16:34:09.906Z,28.48
2019-01-10T16:36:36.369Z,28.42
2019-01-10T16:39:02.721Z,28.32
2019-01-10T16:41:29.512Z,28.44
2019-01-10T16:43:55.890Z,28.56
2019-01-10T16:46:22.228Z,28.53
2019-01-10T16:48:48.590Z,28.56
2019-01-10T16:51:14.922Z,28.75
2019-01-10T16:53:41.262Z,28.54
2019-01-10T16:56:07.647Z,28.34
2019-01-10T16:58:34.035Z,28.35
2019-01-10T17:01:00.462Z,28.31
2019-01-10T17:03:26.791Z,28.49
2019-01-10T17:05:53.138Z,28.51
2019-01-10T17:08:19.500Z,28.45
2019-01-10T17:10:45.906Z,28.53
2019-01-10T17:13:12.279Z,28.54
2019-01-10T17:15:38.655Z,28.50
2019-01-10T17:18:05.016Z,28.49
2019-01-10T17:20:31.739Z,28.43
2019-01-10T17:22:57.759Z,28.54
2019-01-10T17:25:24.115Z,28.39
2019-01-10T17:27:50.639Z,28.48
2019-01-10T17:30:16.937Z,28.48
2019-01-10T17:32:43.259Z,28.40
2019-01-10T17:35:09.736Z,28.43
2019-01-10T17:37:36.058Z,28.47
2019-01-10T17:40:02.439Z,28.28
2019-01-10T17:42:28.802Z,28.28
2019-01-10T17:44:55.149Z,28.23
2019-01-10T17:47:21.585Z,28.13
2019-01-10T17:49:47.932Z,28.16
2019-01-10T17:52:14.275Z,28.06
2019-01-10T17:54:40.612Z,28.13
2019-01-10T17:57:06.939Z,28.05
2019-01-10T17:59:33.272Z,27.94
2019-01-10T18:01:59.624Z,27.91
2019-01-10T18:04:26.018Z,27.86
2019-01-10T18:06:52.349Z,27.89
2019-01-10T18:09:18.687Z,28.08
2019-01-10T18:11:45.057Z,28.27
2019-01-10T18:14:11.414Z,28.28
2019-01-10T18:16:37.747Z,28.36
2019-01-10T18:19:04.078Z,28.47
2019-01-10T18:21:30.415Z,28.57
2019-01-10T18:23:56.821Z,28.64
2019-01-10T18:26:23.158Z,28.68
2019-01-10T18:28:49.501Z,28.71
2019-01-10T18:31:15.861Z,28.86
2019-01-10T18:33:42.189Z,28.85
2019-01-10T18:36:08.528Z,29.05
2019-01-10T18:38:34.851Z,29.09
2019-01-10T18:41:01.180Z,29.03
2019-01-10T18:43:27.519Z,28.99
2019-01-10T18:45:53.838Z,29.01
2019-01-10T18:48:20.200Z,29.00
2019-01-10T18:50:46.535Z,29.01
2019-01-10T18:53:14.969Z,29.04
2019-01-10T18:55:41.293Z,28.91
2019-01-10T18:58:07.672Z,29.03
2019-01-10T19:00:33.995Z,29.00
2019-01-10T19:03:00.380Z,29.14
2019-01-10T19:05:26.703Z,29.09
2019-01-10T19:07:53.033Z,29.30
2019-01-10T19:10:19.364Z,29.28
2019-01-10T19:12:45.696Z,29.16
2019-01-10T19:15:12.060Z,29.32
2019-01-10T19:17:38.373Z,29.33
2019-01-10T19:20:04.709Z,29.43
2019-01-10T19:22:31.101Z,29.51
2019-01-10T19:24:57.443Z,29.58
2019-01-10T19:27:23.776Z,29.65
2019-01-10T19:29:50.106Z,29.71
2019-01-10T19:32:16.479Z,29.78
2019-01-10T19:34:42.813Z,29.77
2019-01-10T19:37:09.134Z,29.81
2019-01-10T19:39:35.474Z,29.84
2019-01-10T19:42:01.860Z,29.83
2019-01-10T19:44:28.227Z,29.90
2019-01-10T19:46:56.581Z,29.92
2019-01-10T19:49:21.085Z,30.03
2019-01-10T19:51:47.419Z,30.07
2019-01-10T19:54:13.747Z,30.13
2019-01-10T19:56:40.128Z,30.14
2019-01-10T19:59:06.459Z,30.20
2019-01-10T20:01:34.014Z,30.17
2019-01-10T20:03:59.188Z,30.26
2019-01-10T20:06:25.582Z,30.16
2019-01-10T20:08:51.911Z,30.21
2019-01-10T20:11:18.279Z,30.28
2019-01-10T20:13:44.610Z,30.30
2019-01-10T20:16:10.947Z,30.41
2019-01-10T20:18:37.269Z,30.45
2019-01-10T20:21:03.610Z,30.51
2019-01-10T20:23:30.024Z,30.55
2019-01-10T20:25:56.387Z,30.61
2019-01-10T20:28:22.705Z,30.62
2019-01-10T20:30:49.045Z,30.59
2019-01-10T20:33:15.436Z,30.61
2019-01-10T20:35:41.778Z,30.57
2019-01-10T20:38:08.131Z,30.60
2019-01-10T20:40:34.484Z,30.68
2019-01-10T20:43:00.818Z,30.67
2019-01-10T20:45:27.227Z,30.74
2019-01-10T20:47:53.584Z,30.70
2019-01-10T20:50:19.912Z,30.65
2019-01-10T20:52:46.243Z,30.65
2019-01-10T20:55:12.585Z,30.67
2019-01-10T20:57:38.934Z,30.63
2019-01-10T21:00:05.276Z,30.62
2019-01-10T21:02:31.701Z,30.58
2019-01-10T21:04:57.972Z,30.55
2019-01-10T21:07:24.302Z,30.67
2019-01-10T21:09:50.646Z,30.70
2019-01-10T21:12:16.971Z,30.74
2019-01-10T21:14:43.302Z,30.80
2019-01-10T21:17:09.681Z,30.79
2019-01-10T21:19:36.013Z,30.81
2019-01-10T21:22:02.357Z,30.84
2019-01-10T21:24:28.731Z,30.84
2019-01-10T21:26:55.075Z,30.87
2019-01-10T21:29:21.413Z,30.92
2019-01-10T21:31:48.041Z,30.93
2019-01-10T21:34:14.354Z,31.00
2019-01-10T21:36:40.685Z,31.05
2019-01-10T21:39:07.079Z,31.03
2019-01-10T21:41:33.410Z,31.02
2019-01-10T21:43:59.735Z,31.01
2019-01-10T21:46:26.091Z,31.09
2019-01-10T21:48:52.428Z,31.18
2019-01-10T21:51:18.826Z,31.22
2019-01-10T21:53:45.176Z,31.17
2019-01-10T21:56:11.497Z,31.27
2019-01-10T21:58:37.837Z,31.29
2019-01-10T22:01:04.161Z,31.36
2019-01-10T22:03:30.575Z,31.43
2019-01-10T22:05:56.937Z,31.41
2019-01-10T22:08:23.301Z,31.37
2019-01-10T22:10:49.714Z,31.32
2019-01-10T22:13:16.070Z,31.39
2019-01-10T22:15:42.399Z,31.53
2019-01-10T22:18:08.757Z,31.65
2019-01-10T22:20:35.111Z,31.59
2019-01-10T22:23:01.448Z,31.61
2019-01-10T22:25:27.880Z,31.66
2019-01-10T22:27:54.222Z,31.69
2019-01-10T22:30:20.558Z,31.65
2019-01-10T22:32:46.882Z,31.64
2019-01-10T22:35:13.206Z,31.56
2019-01-10T22:37:39.544Z,31.54
2019-01-10T22:40:05.874Z,31.62
2019-01-10T22:42:32.208Z,31.52
2019-01-10T22:44:58.558Z,31.61
2019-01-10T22:47:24.914Z,31.64
2019-01-10T22:49:51.299Z,31.65
2019-01-10T22:52:17.627Z,31.69
2019-01-10T22:54:43.958Z,31.67
2019-01-10T22:57:10.291Z,31.69
2019-01-10T22:59:36.626Z,31.81
2019-01-10T23:02:02.951Z,31.71
2019-01-10T23:04:29.281Z,31.75
2019-01-10T23:06:55.614Z,31.88
2019-01-10T23:09:21.993Z,31.88
2019-01-10T23:11:48.338Z,31.93
2019-01-10T23:14:14.678Z,32.02
2019-01-10T23:16:41.002Z,31.86
2019-01-10T23:19:07.390Z,31.85
2019-01-10T23:21:33.755Z,31.75
2019-01-10T23:24:00.079Z,31.83
2019-01-10T23:26:26.407Z,31.73
2019-01-10T23:28:52.754Z,31.81
2019-01-10T23:31:19.085Z,31.84
2019-01-10T23:33:45.501Z,31.87
2019-01-10T23:36:11.824Z,31.83
2019-01-10T23:38:38.156Z,31.94
2019-01-10T23:41:04.514Z,31.91
2019-01-10T23:43:30.883Z,31.83
2019-01-10T23:45:57.211Z,31.95
2019-01-10T23:48:23.609Z,31.81
2019-01-10T23:50:49.958Z,31.86
2019-01-10T23:53:16.297Z,31.74
2019-01-10T23:55:42.631Z,31.69
2019-01-10T23:58:08.966Z,31.75
